Time;durP1;ratioP1;P1;durP2;ratioP2;P2;SDS_P1;SDS_P2;PMS_P1;PMS_P2;Temp;Humidity;BMP_temperature;BMP_pressure;BME280_temperature;BME280_humidity;BME280_pressure;Samples;Min_cycle;Max_cycle;Signal;HPM_P1;HPM_P2
2023/08/23 00:00:50;;;;;;;7.83;4.63;;;23.30;99.90;;;;;;5094623;28;20873;-80
2023/08/23 00:03:18;;;;;;;5.57;5.00;;;23.20;99.90;;;;;;5093866;28;20534;-79
2023/08/23 00:05:45;;;;;;;4.73;4.33;;;23.10;99.90;;;;;;5095166;28;20970;-79
2023/08/23 00:08:12;;;;;;;6.30;5.70;;;23.00;99.90;;;;;;5085294;28;20531;-80
2023/08/23 00:11:02;;;;;;;6.03;5.43;;;23.00;99.90;;;;;;5094159;28;20467;-79
2023/08/23 00:13:29;;;;;;;5.20;4.80;;;22.90;99.90;;;;;;5093898;28;20811;-80
2023/08/23 00:15:59;;;;;;;5.10;4.60;;;22.90;99.90;;;;;;5093756;28;20500;-80
2023/08/23 00:18:25;;;;;;;6.23;5.50;;;22.80;99.90;;;;;;5098834;28;20576;-80
2023/08/23 00:20:53;;;;;;;5.57;5.07;;;22.80;99.90;;;;;;5094586;28;20461;-79
2023/08/23 00:23:20;;;;;;;5.90;5.40;;;22.70;99.90;;;;;;5093748;28;20500;-79
2023/08/23 00:25:48;;;;;;;7.53;5.87;;;22.70;99.90;;;;;;5097246;28;20474;-79
2023/08/23 00:28:19;;;;;;;5.80;5.30;;;22.60;99.90;;;;;;5096227;28;20478;-79
2023/08/23 00:30:50;;;;;;;5.70;4.07;;;22.60;99.90;;;;;;5094247;28;20465;-79
2023/08/23 00:33:17;;;;;;;5.57;5.17;;;22.60;99.90;;;;;;5093519;28;20493;-80
2023/08/23 00:35:43;;;;;;;5.83;5.13;;;22.60;99.90;;;;;;5094145;28;20465;-79
2023/08/23 00:38:10;;;;;;;7.70;5.10;;;22.50;99.90;;;;;;5093730;28;20526;-80
2023/08/23 00:40:37;;;;;;;5.33;4.87;;;22.50;99.90;;;;;;5093399;28;20930;-79
2023/08/23 00:43:07;;;;;;;5.37;4.97;;;22.50;99.90;;;;;;5093254;28;20469;-80
2023/08/23 00:45:40;;;;;;;5.10;4.70;;;22.50;99.90;;;;;;5110826;28;20801;-79
2023/08/23 00:51:03;;;;;;;4.93;4.53;;;22.40;99.90;;;;;;5082582;28;20475;-79
2023/08/23 00:53:30;;;;;;;5.83;4.93;;;22.40;99.90;;;;;;5113914;28;20456;-79
2023/08/23 00:56:17;;;;;;;6.73;4.63;;;22.40;99.90;;;;;;5113949;28;20781;-80
2023/08/23 00:58:45;;;;;;;5.93;5.43;;;22.40;99.90;;;;;;5107141;28;20711;-80
2023/08/23 01:01:14;;;;;;;5.07;4.67;;;22.40;99.90;;;;;;5114041;28;20801;-81
2023/08/23 01:03:45;;;;;;;5.57;5.07;;;22.40;99.90;;;;;;5113708;28;20472;-79
2023/08/23 01:06:28;;;;;;;5.53;5.13;;;22.30;99.90;;;;;;5113708;28;20978;-79
2023/08/23 01:09:05;;;;;;;5.57;5.00;;;22.30;99.90;;;;;;5113679;28;20468;-79
2023/08/23 01:11:37;;;;;;;5.10;4.60;;;22.30;99.90;;;;;;5116692;28;20839;-79
2023/08/23 01:14:11;;;;;;;4.60;4.20;;;22.30;99.90;;;;;;5114461;28;20502;-79
2023/08/23 01:16:44;;;;;;;5.90;5.03;;;22.30;99.90;;;;;;5115746;28;20540;-80
2023/08/23 01:19:46;;;;;;;4.80;4.40;;;22.30;99.90;;;;;;5116693;28;20532;-78
2023/08/23 01:22:32;;;;;;;6.57;6.10;;;22.30;99.90;;;;;;5108489;28;21004;-80
2023/08/23 01:25:00;;;;;;;4.63;4.33;;;22.20;99.90;;;;;;5119576;28;20859;-79
2023/08/23 01:27:32;;;;;;;5.77;5.33;;;22.20;99.90;;;;;;5118823;28;20493;-80
2023/08/23 01:29:59;;;;;;;5.47;5.07;;;22.20;99.90;;;;;;5120603;28;20815;-80
2023/08/23 01:32:36;;;;;;;7.27;6.57;;;22.20;99.90;;;;;;5118865;28;20488;-78
2023/08/23 01:35:10;;;;;;;6.33;5.73;;;22.10;99.90;;;;;;5117984;28;20853;-80
2023/08/23 01:37:40;;;;;;;7.17;5.17;;;22.10;99.90;;;;;;5118017;28;20529;-80
2023/08/23 01:40:11;;;;;;;5.07;4.57;;;22.10;99.90;;;;;;5117860;28;20550;-80
2023/08/23 01:42:39;;;;;;;5.50;4.73;;;22.10;99.90;;;;;;5118157;28;20464;-78
2023/08/23 01:45:07;;;;;;;5.07;4.67;;;22.10;99.90;;;;;;5117800;28;20538;-79
2023/08/23 01:47:34;;;;;;;6.47;5.20;;;22.00;99.90;;;;;;5117677;28;20461;-80
2023/08/23 01:50:01;;;;;;;5.97;5.23;;;22.00;99.90;;;;;;5117050;28;20460;-79
2023/08/23 01:52:28;;;;;;;6.43;5.63;;;22.00;99.90;;;;;;5117886;28;20467;-79
2023/08/23 01:54:55;;;;;;;5.83;5.33;;;22.00;99.90;;;;;;5117189;28;20495;-79
2023/08/23 01:57:24;;;;;;;5.77;5.27;;;22.00;99.90;;;;;;5117976;28;20460;-79
2023/08/23 01:59:52;;;;;;;6.97;5.83;;;22.00;99.90;;;;;;5117939;28;20961;-80
2023/08/23 02:02:19;;;;;;;5.73;5.23;;;22.00;99.90;;;;;;5117312;28;20510;-80
2023/08/23 02:04:47;;;;;;;6.30;5.40;;;22.00;99.90;;;;;;5117463;28;20525;-79
2023/08/23 02:07:14;;;;;;;5.30;4.80;;;21.90;99.90;;;;;;5116739;28;20505;-79
2023/08/23 02:09:42;;;;;;;6.47;5.77;;;21.90;99.90;;;;;;5117577;28;20544;-79
2023/08/23 02:12:09;;;;;;;9.10;5.57;;;21.90;99.90;;;;;;5117000;28;20488;-81
2023/08/23 02:14:38;;;;;;;7.67;5.10;;;21.90;99.90;;;;;;5117424;28;20511;-80
2023/08/23 02:17:05;;;;;;;5.50;5.00;;;21.90;99.90;;;;;;5116538;28;20503;-79
2023/08/23 02:19:32;;;;;;;5.67;5.00;;;21.80;99.90;;;;;;5117541;28;20945;-79
2023/08/23 02:22:00;;;;;;;5.13;4.83;;;21.80;99.90;;;;;;5116982;28;20569;-79
2023/08/23 02:24:26;;;;;;;5.60;5.10;;;21.80;99.90;;;;;;5116656;28;20500;-79
2023/08/23 02:26:56;;;;;;;7.40;6.23;;;21.80;99.90;;;;;;5117026;28;20469;-80
2023/08/23 02:29:23;;;;;;;5.77;5.03;;;21.80;99.90;;;;;;5116842;28;20529;-80
2023/08/23 02:31:51;;;;;;;5.60;5.10;;;21.80;99.90;;;;;;5117011;28;20468;-80
2023/08/23 02:34:19;;;;;;;6.30;5.50;;;21.80;99.90;;;;;;5116561;28;20537;-80
2023/08/23 02:36:46;;;;;;;7.33;6.60;;;21.80;99.90;;;;;;5117037;28;20464;-79
2023/08/23 02:39:13;;;;;;;6.83;5.17;;;21.80;99.90;;;;;;5116476;28;20468;-79
2023/08/23 02:41:41;;;;;;;5.80;5.30;;;21.80;99.90;;;;;;5116403;28;20494;-80
2023/08/23 02:44:08;;;;;;;5.87;5.37;;;21.80;99.90;;;;;;5116104;28;20498;-80
2023/08/23 02:46:35;;;;;;;7.37;6.27;;;21.80;99.90;;;;;;5116522;28;20465;-79
2023/08/23 02:49:04;;;;;;;6.67;6.07;;;21.80;99.90;;;;;;5115416;28;20468;-80
2023/08/23 02:51:32;;;;;;;8.93;7.50;;;21.80;99.90;;;;;;5116316;28;20539;-79
2023/08/23 02:53:59;;;;;;;6.80;6.10;;;21.70;99.90;;;;;;5116476;28;20464;-80
2023/08/23 02:56:26;;;;;;;6.50;5.90;;;21.80;99.90;;;;;;5115521;28;20447;-79
2023/08/23 02:58:53;;;;;;;7.10;6.50;;;21.80;99.90;;;;;;5116541;28;20521;-81
2023/08/23 03:01:20;;;;;;;8.67;6.20;;;21.70;99.90;;;;;;5107275;28;20496;-79
2023/08/23 03:03:47;;;;;;;7.10;6.40;;;21.70;99.90;;;;;;5115747;28;20589;-79
2023/08/23 03:06:15;;;;;;;5.83;5.43;;;21.70;99.90;;;;;;5114525;27;20473;-79
2023/08/23 03:08:42;;;;;;;19.67;16.53;;;21.70;99.90;;;;;;5116554;28;20468;-80
2023/08/23 03:11:09;;;;;;;51.40;45.77;;;21.70;99.90;;;;;;5114987;28;20472;-79
2023/08/23 03:13:36;;;;;;;34.40;29.27;;;21.70;99.90;;;;;;5116431;28;20545;-78
2023/08/23 03:16:03;;;;;;;9.90;8.93;;;21.70;99.90;;;;;;5116294;28;20963;-79
2023/08/23 03:18:30;;;;;;;7.80;7.10;;;21.70;99.90;;;;;;5115420;28;20502;-78
2023/08/23 03:20:57;;;;;;;7.33;6.60;;;21.70;99.90;;;;;;5115998;28;20518;-79
2023/08/23 03:23:26;;;;;;;6.03;5.47;;;21.60;99.90;;;;;;5115068;28;20559;-79
2023/08/23 03:25:53;;;;;;;6.73;6.13;;;21.70;99.90;;;;;;5115998;28;20525;-79
2023/08/23 03:28:20;;;;;;;5.40;5.00;;;21.70;99.90;;;;;;5115176;28;20472;-79
2023/08/23 03:30:47;;;;;;;7.40;6.67;;;21.70;99.90;;;;;;5115637;28;20472;-79
2023/08/23 03:33:14;;;;;;;5.83;5.40;;;21.60;99.90;;;;;;5114845;28;20864;-78
2023/08/23 03:35:41;;;;;;;8.53;5.83;;;21.60;99.90;;;;;;5115170;28;20468;-79
2023/08/23 03:38:08;;;;;;;6.97;6.37;;;21.60;99.90;;;;;;5115581;28;20525;-79
2023/08/23 03:40:40;;;;;;;6.80;6.20;;;21.60;99.90;;;;;;5115220;28;20522;-78
2023/08/23 03:43:07;;;;;;;7.70;6.90;;;21.60;99.90;;;;;;5115462;28;20465;-78
2023/08/23 03:45:35;;;;;;;8.83;6.90;;;21.60;99.90;;;;;;5114513;28;20465;-78
2023/08/23 03:48:02;;;;;;;7.40;6.63;;;21.50;99.90;;;;;;5114799;28;20475;-79
2023/08/23 03:50:29;;;;;;;7.10;6.27;;;21.50;99.90;;;;;;5115041;28;20472;-78
2023/08/23 03:52:56;;;;;;;7.10;6.20;;;21.50;99.90;;;;;;5115286;28;20460;-78
2023/08/23 03:55:23;;;;;;;6.30;5.80;;;21.50;99.90;;;;;;5114634;28;20529;-79
2023/08/23 03:57:51;;;;;;;8.00;7.17;;;21.50;99.90;;;;;;5115047;28;20465;-79
2023/08/23 04:00:19;;;;;;;6.23;5.83;;;21.50;99.90;;;;;;5114445;28;20476;-80
2023/08/23 04:02:48;;;;;;;8.30;6.83;;;21.50;99.90;;;;;;5115305;28;20873;-78
2023/08/23 04:05:15;;;;;;;8.60;6.57;;;21.40;99.90;;;;;;5114751;28;20473;-80
2023/08/23 04:07:42;;;;;;;6.97;6.33;;;21.40;99.90;;;;;;5114627;28;20463;-79
2023/08/23 04:10:10;;;;;;;7.57;6.80;;;21.40;99.90;;;;;;5114308;28;20481;-80
2023/08/23 04:12:37;;;;;;;6.10;5.60;;;21.40;99.90;;;;;;5114791;28;20460;-79
2023/08/23 04:15:06;;;;;;;7.87;7.07;;;21.40;99.90;;;;;;5115085;28;20464;-79
2023/08/23 04:17:42;;;;;;;6.80;6.20;;;21.40;99.90;;;;;;5114982;27;20532;-79
2023/08/23 04:20:10;;;;;;;7.30;6.67;;;21.40;99.90;;;;;;5119002;27;20468;-78
2023/08/23 04:22:37;;;;;;;6.17;5.67;;;21.30;99.90;;;;;;5113445;28;20453;-79
2023/08/23 04:25:04;;;;;;;7.03;6.40;;;21.30;99.90;;;;;;5114740;28;20896;-80
2023/08/23 04:27:31;;;;;;;7.10;6.40;;;21.30;99.90;;;;;;5114333;28;20492;-78
2023/08/23 04:29:58;;;;;;;7.70;7.00;;;21.30;99.90;;;;;;5114482;28;20823;-79
2023/08/23 04:32:27;;;;;;;8.00;6.60;;;21.30;99.90;;;;;;5104914;27;20526;-78
2023/08/23 04:34:54;;;;;;;6.43;5.83;;;21.30;99.90;;;;;;5129601;27;20464;-77
2023/08/23 04:37:20;;;;;;;7.53;6.83;;;21.20;99.90;;;;;;5113872;28;20469;-80
2023/08/23 04:39:48;;;;;;;7.67;6.97;;;21.20;99.90;;;;;;5114310;28;20461;-78
2023/08/23 04:42:15;;;;;;;8.53;6.57;;;21.20;99.90;;;;;;5114734;28;20859;-78
2023/08/23 04:44:42;;;;;;;7.87;7.17;;;21.20;99.90;;;;;;5113959;28;20461;-79
2023/08/23 04:47:09;;;;;;;6.70;6.10;;;21.20;99.90;;;;;;5114244;28;20860;-79
2023/08/23 04:49:38;;;;;;;6.67;6.10;;;21.20;99.90;;;;;;5113618;28;20468;-80
2023/08/23 04:52:05;;;;;;;8.23;7.47;;;21.20;99.90;;;;;;5114343;28;20457;-78
2023/08/23 04:54:32;;;;;;;7.30;6.60;;;21.20;99.90;;;;;;5112903;28;20515;-79
2023/08/23 04:56:59;;;;;;;7.33;6.30;;;21.20;99.90;;;;;;5117588;28;20468;-78
2023/08/23 04:59:28;;;;;;;7.00;6.30;;;21.20;99.90;;;;;;5113097;28;20464;-78
2023/08/23 05:01:55;;;;;;;9.80;7.23;;;21.20;99.90;;;;;;5114503;28;20468;-80
2023/08/23 05:04:26;;;;;;;10.37;6.97;;;21.20;99.90;;;;;;5114438;28;20472;-79
2023/08/23 05:06:55;;;;;;;7.77;6.97;;;21.20;99.90;;;;;;5114363;28;20549;-78
2023/08/23 05:09:22;;;;;;;7.40;6.70;;;21.20;99.90;;;;;;5113814;28;20468;-78
2023/08/23 05:11:48;;;;;;;7.40;6.30;;;21.20;99.90;;;;;;5113864;28;20456;-78
2023/08/23 05:14:15;;;;;;;10.73;8.20;;;21.30;99.90;;;;;;5113280;28;20949;-78
2023/08/23 05:16:42;;;;;;;7.80;6.40;;;21.30;99.90;;;;;;5113557;28;20987;-79
2023/08/23 05:19:09;;;;;;;8.87;6.33;;;21.30;99.90;;;;;;5113891;28;20499;-80
2023/08/23 05:21:36;;;;;;;7.27;5.90;;;21.30;99.90;;;;;;5113353;28;20503;-80
2023/08/23 05:24:08;;;;;;;6.77;6.20;;;21.30;99.90;;;;;;5114132;28;20522;-78
2023/08/23 05:26:35;;;;;;;7.87;6.30;;;21.40;99.90;;;;;;5113313;28;20533;-80
2023/08/23 05:29:02;;;;;;;9.87;7.10;;;21.40;99.90;;;;;;5113709;28;20521;-80
2023/08/23 05:31:31;;;;;;;7.20;6.50;;;21.40;99.90;;;;;;5103148;28;20957;-81
2023/08/23 05:34:00;;;;;;;7.03;6.30;;;21.40;99.90;;;;;;5113445;28;20461;-78
2023/08/23 05:36:26;;;;;;;6.50;6.00;;;21.40;99.90;;;;;;5113666;28;20490;-78
2023/08/23 05:38:53;;;;;;;6.80;6.30;;;21.50;99.90;;;;;;5113178;28;20525;-78
2023/08/23 05:41:23;;;;;;;6.37;5.80;;;21.50;99.90;;;;;;5113353;28;20468;-79
2023/08/23 05:43:51;;;;;;;6.20;5.70;;;21.60;99.90;;;;;;5113339;28;20463;-79
2023/08/23 05:46:18;;;;;;;7.07;6.37;;;21.60;99.90;;;;;;5113577;28;20477;-80
2023/08/23 05:48:44;;;;;;;6.07;5.57;;;21.60;99.90;;;;;;5112734;28;21027;-80
2023/08/23 05:51:12;;;;;;;8.67;6.57;;;21.60;99.90;;;;;;5113626;28;20460;-80
2023/08/23 05:53:39;;;;;;;6.23;5.63;;;21.60;99.90;;;;;;5112963;28;20469;-80
2023/08/23 05:56:07;;;;;;;7.13;6.50;;;21.70;99.90;;;;;;5113513;28;20478;-78
2023/08/23 05:58:35;;;;;;;7.30;6.60;;;21.70;99.90;;;;;;5112889;28;20461;-80
2023/08/23 06:01:05;;;;;;;11.17;6.80;;;21.80;99.90;;;;;;5113926;28;20464;-81
2023/08/23 06:03:31;;;;;;;7.13;6.43;;;21.80;99.90;;;;;;5112717;28;20469;-80
2023/08/23 06:05:59;;;;;;;8.67;6.50;;;21.80;99.90;;;;;;5113624;28;20464;-80
2023/08/23 06:08:26;;;;;;;8.40;7.50;;;21.80;99.90;;;;;;5118372;28;20467;-79
2023/08/23 06:10:53;;;;;;;8.40;7.43;;;21.80;99.90;;;;;;5116412;27;20525;-80
2023/08/23 06:13:23;;;;;;;9.97;7.03;;;21.90;99.90;;;;;;5117076;28;20469;-81
2023/08/23 06:16:05;;;;;;;9.23;6.60;;;22.00;99.90;;;;;;5109709;27;20503;-80
2023/08/23 06:18:32;;;;;;;12.73;7.57;;;22.00;99.90;;;;;;5122877;27;20470;-80
2023/08/23 06:21:00;;;;;;;8.00;6.47;;;22.00;99.90;;;;;;5116825;28;20465;-81
2023/08/23 06:23:27;;;;;;;8.57;7.77;;;22.10;99.90;;;;;;5117090;28;20474;-79
2023/08/23 06:25:59;;;;;;;10.90;7.43;;;22.10;99.90;;;;;;5116707;28;20502;-79
2023/08/23 06:28:27;;;;;;;9.53;6.50;;;22.10;99.90;;;;;;5116959;28;20475;-79
2023/08/23 06:30:56;;;;;;;9.53;6.93;;;22.20;99.90;;;;;;5116620;28;20469;-80
2023/08/23 06:33:23;;;;;;;7.73;6.70;;;22.20;99.90;;;;;;5117497;28;20492;-80
2023/08/23 06:35:51;;;;;;;6.90;5.63;;;22.20;99.90;;;;;;5117095;28;20539;-78
2023/08/23 06:38:18;;;;;;;7.30;6.30;;;22.30;99.90;;;;;;5124884;28;20460;-80
2023/08/23 06:40:45;;;;;;;6.60;5.70;;;22.30;99.90;;;;;;5117232;28;20498;-79
2023/08/23 06:43:18;;;;;;;7.33;6.20;;;22.30;99.90;;;;;;5096239;28;20491;-79
2023/08/23 06:45:45;;;;;;;8.03;7.03;;;22.40;99.90;;;;;;5097626;28;20484;-78
2023/08/23 06:48:14;;;;;;;7.13;6.43;;;22.40;99.90;;;;;;5102165;28;20453;-79
2023/08/23 06:50:40;;;;;;;6.70;6.10;;;22.50;99.90;;;;;;5096585;28;20481;-79
2023/08/23 06:53:07;;;;;;;6.97;5.90;;;22.50;99.90;;;;;;5096031;28;20530;-80
2023/08/23 06:55:39;;;;;;;7.10;5.83;;;22.60;99.90;;;;;;5096495;28;20500;-80
2023/08/23 06:58:07;;;;;;;6.47;5.67;;;22.60;99.90;;;;;;5100069;28;20503;-80
2023/08/23 07:00:34;;;;;;;8.87;6.20;;;22.70;99.90;;;;;;5096106;28;20469;-80
2023/08/23 07:03:01;;;;;;;8.00;5.87;;;22.70;99.90;;;;;;5095650;28;20469;-80
2023/08/23 07:05:30;;;;;;;6.93;6.33;;;22.70;99.90;;;;;;5095657;28;20530;-79
2023/08/23 07:07:56;;;;;;;8.63;6.63;;;22.80;99.90;;;;;;5095209;28;20466;-79
2023/08/23 07:10:24;;;;;;;6.17;5.00;;;22.90;99.90;;;;;;5095116;28;20497;-80
2023/08/23 07:12:50;;;;;;;7.30;5.40;;;22.90;99.90;;;;;;5095047;28;20469;-79
2023/08/23 07:15:18;;;;;;;8.23;5.57;;;23.00;99.90;;;;;;5095372;28;20471;-81
2023/08/23 07:17:45;;;;;;;7.17;5.77;;;23.00;99.90;;;;;;5095447;28;20472;-80
2023/08/23 07:20:14;;;;;;;5.53;4.40;;;23.10;99.90;;;;;;5095122;28;20968;-79
2023/08/23 07:22:43;;;;;;;4.50;4.10;;;23.20;99.90;;;;;;5094919;28;20461;-80
2023/08/23 07:25:12;;;;;;;6.50;5.23;;;23.30;99.90;;;;;;5095080;28;20461;-80
2023/08/23 07:27:39;;;;;;;7.73;4.67;;;23.30;99.90;;;;;;5095255;28;20507;-79
2023/08/23 07:30:07;;;;;;;5.87;4.00;;;23.40;99.90;;;;;;5094745;28;20538;-79
2023/08/23 07:32:34;;;;;;;4.10;3.77;;;23.50;99.90;;;;;;5095587;28;20495;-80
2023/08/23 07:35:01;;;;;;;4.30;3.80;;;23.50;99.90;;;;;;5094271;28;20481;-79
2023/08/23 07:37:28;;;;;;;4.27;3.30;;;23.60;99.90;;;;;;5095154;28;20493;-79
2023/08/23 07:39:57;;;;;;;4.60;3.30;;;23.70;99.90;;;;;;5093191;28;20868;-78
2023/08/23 07:42:25;;;;;;;3.50;3.20;;;23.80;99.90;;;;;;5108330;28;20945;-78
2023/08/23 07:44:52;;;;;;;3.23;3.03;;;23.80;99.90;;;;;;5115495;28;20969;-79
2023/08/23 07:47:19;;;;;;;5.13;3.43;;;23.90;99.90;;;;;;5115114;28;20452;-79
2023/08/23 07:49:46;;;;;;;4.07;3.70;;;23.90;99.90;;;;;;5115908;28;20492;-79
2023/08/23 07:52:14;;;;;;;3.83;3.50;;;24.00;99.90;;;;;;5115016;28;20533;-79
2023/08/23 07:54:41;;;;;;;4.90;3.63;;;24.10;99.90;;;;;;5115772;28;20469;-78
2023/08/23 07:57:09;;;;;;;5.13;3.57;;;24.20;99.90;;;;;;5114607;28;20487;-79
2023/08/23 07:59:36;;;;;;;3.10;2.90;;;24.20;99.90;;;;;;5116031;28;20765;-79
2023/08/23 08:02:03;;;;;;;4.50;3.47;;;24.30;99.90;;;;;;5115328;28;20495;-79
2023/08/23 08:04:32;;;;;;;5.10;3.57;;;24.40;99.90;;;;;;5115346;28;20460;-78
2023/08/23 08:07:02;;;;;;;3.50;3.10;;;24.50;99.90;;;;;;5115327;28;20468;-79
2023/08/23 08:09:29;;;;;;;4.90;3.73;;;24.50;99.90;;;;;;5115139;28;20797;-78
2023/08/23 08:11:57;;;;;;;7.20;4.33;;;24.60;99.90;;;;;;5115207;28;20464;-78
2023/08/23 08:14:27;;;;;;;5.33;4.40;;;24.60;99.90;;;;;;5113766;28;20483;-79
2023/08/23 08:16:59;;;;;;;6.50;5.90;;;24.70;99.90;;;;;;5115234;28;20471;-79
2023/08/23 08:19:28;;;;;;;6.37;4.70;;;24.70;99.90;;;;;;5114456;28;21213;-79
2023/08/23 08:21:55;;;;;;;4.90;4.40;;;24.80;99.90;;;;;;5113911;28;20468;-80
2023/08/23 08:24:22;;;;;;;4.43;4.03;;;24.80;99.90;;;;;;5114323;28;20473;-78
2023/08/23 08:26:49;;;;;;;4.17;3.87;;;24.90;99.90;;;;;;5105710;28;20468;-79
2023/08/23 08:29:16;;;;;;;5.20;4.27;;;25.00;99.90;;;;;;5113258;28;20486;-79
2023/08/23 08:31:50;;;;;;;5.20;4.77;;;25.00;99.90;;;;;;5109070;27;20463;-79
2023/08/23 08:34:17;;;;;;;5.10;4.70;;;25.10;99.90;;;;;;5124667;27;20533;-78
2023/08/23 08:36:44;;;;;;;4.07;3.77;;;25.10;99.90;;;;;;5114447;28;20472;-78
2023/08/23 08:39:11;;;;;;;7.07;3.73;;;25.20;99.90;;;;;;5114443;28;20480;-79
2023/08/23 08:41:41;;;;;;;4.60;4.23;;;25.20;99.90;;;;;;5114715;28;20778;-79
2023/08/23 08:44:11;;;;;;;5.27;3.50;;;25.30;99.90;;;;;;5114993;28;20469;-78
2023/08/23 08:46:38;;;;;;;4.30;3.90;;;25.40;99.90;;;;;;5114420;28;20452;-78
2023/08/23 08:49:07;;;;;;;5.43;4.93;;;25.40;99.90;;;;;;5115042;28;20467;-78
2023/08/23 08:51:37;;;;;;;4.40;4.00;;;25.50;99.90;;;;;;5113996;28;22316;-78
2023/08/23 08:54:06;;;;;;;4.40;4.10;;;25.50;99.90;;;;;;5114663;28;20540;-79
2023/08/23 08:56:40;;;;;;;4.80;3.93;;;25.60;99.90;;;;;;5113545;28;20460;-79
2023/08/23 08:59:08;;;;;;;4.87;4.30;;;25.60;99.90;;;;;;5114245;28;21025;-80
2023/08/23 09:01:43;;;;;;;6.20;4.90;;;25.60;99.90;;;;;;5113965;28;20460;-78
2023/08/23 09:04:11;;;;;;;5.63;4.30;;;25.60;99.90;;;;;;5114099;28;20467;-79
2023/08/23 09:06:41;;;;;;;6.13;4.87;;;25.70;99.90;;;;;;5112462;28;20459;-80
2023/08/23 09:09:08;;;;;;;5.30;4.90;;;25.70;99.90;;;;;;5113786;28;20969;-79
2023/08/23 09:11:38;;;;;;;5.73;5.13;;;25.80;99.90;;;;;;5113597;28;20468;-80
2023/08/23 09:14:15;;;;;;;5.53;5.00;;;25.80;99.90;;;;;;5113945;28;20469;-79
2023/08/23 09:16:42;;;;;;;5.93;5.43;;;25.80;99.90;;;;;;5113381;28;20463;-79
2023/08/23 09:19:12;;;;;;;5.87;5.23;;;25.90;99.90;;;;;;5114281;28;20530;-79
2023/08/23 09:21:43;;;;;;;5.03;4.60;;;26.00;99.90;;;;;;5113621;28;20457;-80
2023/08/23 09:24:12;;;;;;;5.37;4.87;;;26.00;99.90;;;;;;5113996;28;20778;-80
2023/08/23 09:26:40;;;;;;;5.60;5.13;;;26.10;99.90;;;;;;5112387;28;20468;-79
2023/08/23 09:29:07;;;;;;;4.60;3.77;;;26.10;99.90;;;;;;5113789;28;20484;-78
2023/08/23 09:31:34;;;;;;;5.87;4.83;;;26.10;99.90;;;;;;5113289;28;20966;-78
2023/08/23 09:34:03;;;;;;;4.23;3.83;;;26.20;99.90;;;;;;5114159;28;20492;-78
2023/08/23 09:36:39;;;;;;;5.07;4.57;;;26.20;99.90;;;;;;5113732;28;20469;-78
2023/08/23 09:39:09;;;;;;;6.67;5.23;;;26.30;99.90;;;;;;5113272;28;20548;-78
2023/08/23 09:41:42;;;;;;;5.70;5.20;;;26.30;99.90;;;;;;5112848;28;20491;-78
2023/08/23 09:44:09;;;;;;;4.73;4.33;;;26.30;99.90;;;;;;5114573;28;20485;-78
2023/08/23 09:46:39;;;;;;;5.30;4.90;;;26.30;99.90;;;;;;5117637;28;20476;-80
2023/08/23 09:49:08;;;;;;;4.90;4.50;;;26.30;99.90;;;;;;5118385;28;20472;-79
2023/08/23 09:51:37;;;;;;;4.47;4.17;;;26.30;99.90;;;;;;5117856;28;20470;-80
2023/08/23 09:54:11;;;;;;;6.23;5.63;;;26.30;99.90;;;;;;5116982;28;20537;-81
2023/08/23 09:56:42;;;;;;;5.00;4.60;;;26.30;99.90;;;;;;5117611;28;20558;-79
2023/08/23 09:59:10;;;;;;;6.40;5.27;;;26.40;99.90;;;;;;5117962;28;21024;-79
2023/08/23 10:01:38;;;;;;;7.10;6.60;;;26.50;99.90;;;;;;5116859;28;20472;-79
2023/08/23 10:04:07;;;;;;;6.63;6.07;;;26.60;99.90;;;;;;5117395;28;20941;-79
2023/08/23 10:06:36;;;;;;;7.30;6.70;;;26.60;99.90;;;;;;5100667;28;20473;-79
2023/08/23 10:09:04;;;;;;;4.63;3.73;;;26.70;99.90;;;;;;5118335;28;20841;-78
2023/08/23 10:11:33;;;;;;;6.47;5.97;;;26.80;99.90;;;;;;5117247;28;20500;-80
2023/08/23 10:14:03;;;;;;;5.03;4.63;;;26.90;99.90;;;;;;5117222;28;20455;-81
2023/08/23 10:16:32;;;;;;;4.97;4.57;;;26.90;99.90;;;;;;5117542;28;20479;-80
2023/08/23 10:19:00;;;;;;;5.50;5.10;;;26.90;99.90;;;;;;5117034;28;20462;-78
2023/08/23 10:21:27;;;;;;;6.67;6.07;;;26.90;99.90;;;;;;5117150;28;20465;-79
2023/08/23 10:23:56;;;;;;;6.27;5.40;;;26.90;99.90;;;;;;5116605;28;20790;-80
2023/08/23 10:26:26;;;;;;;5.63;5.20;;;26.90;99.90;;;;;;5117020;28;20469;-78
2023/08/23 10:28:54;;;;;;;6.03;5.53;;;26.90;99.90;;;;;;5117156;28;20466;-79
2023/08/23 10:31:26;;;;;;;7.00;6.40;;;26.90;99.90;;;;;;5117604;28;20473;-79
2023/08/23 10:33:57;;;;;;;6.83;6.23;;;26.90;99.90;;;;;;5107573;27;20954;-80
2023/08/23 10:36:28;;;;;;;6.07;5.57;;;26.90;99.90;;;;;;5131383;27;20482;-79
2023/08/23 10:39:17;;;;;;;7.47;6.80;;;26.90;99.90;;;;;;5117007;28;20495;-80
2023/08/23 10:41:44;;;;;;;6.40;5.80;;;26.90;99.90;;;;;;5117683;28;20535;-79
2023/08/23 10:44:17;;;;;;;7.07;6.47;;;26.90;99.90;;;;;;5116850;28;20926;-80
2023/08/23 10:46:46;;;;;;;6.37;5.87;;;26.90;99.90;;;;;;5119201;28;20462;-80
2023/08/23 10:49:14;;;;;;;6.30;5.53;;;27.00;99.90;;;;;;5121354;28;20455;-79
2023/08/23 10:51:42;;;;;;;5.83;5.23;;;26.90;99.90;;;;;;5117409;28;20483;-79
2023/08/23 10:54:12;;;;;;;4.70;4.30;;;26.90;99.90;;;;;;5116464;28;20492;-79
2023/08/23 10:56:41;;;;;;;3.87;3.57;;;26.90;99.90;;;;;;5118105;28;20472;-79
2023/08/23 10:59:09;;;;;;;5.27;3.53;;;26.90;99.90;;;;;;5123079;28;20543;-79
2023/08/23 11:01:38;;;;;;;4.87;4.00;;;26.90;99.90;;;;;;5125570;28;20460;-78
2023/08/23 11:04:07;;;;;;;4.30;4.00;;;26.90;99.90;;;;;;5123590;28;20490;-79
2023/08/23 11:06:36;;;;;;;6.87;6.20;;;26.80;99.90;;;;;;5126301;28;20959;-80
2023/08/23 11:09:03;;;;;;;6.23;5.40;;;26.80;99.90;;;;;;5120983;28;20468;-79
2023/08/23 11:11:31;;;;;;;6.10;5.60;;;26.60;99.90;;;;;;5117644;28;20464;-79
2023/08/23 11:13:59;;;;;;;5.40;4.40;;;26.50;99.90;;;;;;5118531;28;20790;-79
2023/08/23 11:16:28;;;;;;;9.67;8.80;;;26.30;99.90;;;;;;5121274;28;20528;-79
2023/08/23 11:18:55;;;;;;;19.77;17.83;;;26.20;99.90;;;;;;5121166;28;20465;-79
2023/08/23 11:21:22;;;;;;;27.40;24.80;;;26.10;99.90;;;;;;5124382;28;20461;-79
2023/08/23 11:23:50;;;;;;;32.50;29.47;;;26.00;99.90;;;;;;5119760;28;20473;-79
2023/08/23 11:26:16;;;;;;;26.73;24.10;;;26.00;99.90;;;;;;5116238;28;20468;-79
2023/08/23 11:28:43;;;;;;;31.03;28.10;;;26.10;99.90;;;;;;5117852;28;20482;-78
2023/08/23 11:31:13;;;;;;;30.27;27.53;;;26.20;99.90;;;;;;5119203;28;20469;-81
2023/08/23 11:33:41;;;;;;;30.30;27.53;;;26.30;99.90;;;;;;5119539;28;20479;-78
2023/08/23 11:36:09;;;;;;;29.17;26.43;;;26.30;99.90;;;;;;5121659;28;20525;-80
2023/08/23 11:38:40;;;;;;;24.70;22.40;;;26.40;99.90;;;;;;5122928;28;20462;-80
2023/08/23 11:41:08;;;;;;;21.03;19.20;;;26.40;99.90;;;;;;5117424;28;20505;-80
2023/08/23 11:43:35;;;;;;;17.17;15.60;;;26.50;99.90;;;;;;5117473;28;20461;-79
2023/08/23 11:46:05;;;;;;;18.70;16.93;;;26.50;99.90;;;;;;5116354;28;20496;-80
2023/08/23 11:48:34;;;;;;;21.17;19.03;;;26.60;99.90;;;;;;5120179;28;20468;-79
2023/08/23 11:51:05;;;;;;;20.97;19.07;;;26.60;99.90;;;;;;5114197;28;20562;-78
2023/08/23 11:53:32;;;;;;;18.67;16.77;;;26.60;99.90;;;;;;5108796;28;20454;-79
2023/08/23 11:55:59;;;;;;;16.73;15.13;;;26.70;99.90;;;;;;5112983;28;20527;-81
2023/08/23 11:58:26;;;;;;;11.43;10.30;;;26.70;99.90;;;;;;5111934;27;20845;-78
2023/08/23 12:00:53;;;;;;;15.03;13.63;;;26.70;99.90;;;;;;5114115;27;20550;-78
2023/08/23 12:03:20;;;;;;;16.20;14.70;;;26.70;99.90;;;;;;5098660;28;20476;-78
2023/08/23 12:05:49;;;;;;;14.70;13.30;;;26.70;99.90;;;;;;5101799;28;20531;-79
2023/08/23 12:08:16;;;;;;;9.10;8.23;;;26.70;99.90;;;;;;5101564;28;20561;-78
2023/08/23 12:10:43;;;;;;;10.40;9.50;;;26.80;99.90;;;;;;5116604;28;20980;-78
2023/08/23 12:13:12;;;;;;;11.47;10.50;;;26.70;99.90;;;;;;5118095;28;20464;-78
2023/08/23 12:15:38;;;;;;;14.03;12.80;;;26.80;99.90;;;;;;5118394;28;20459;-78
2023/08/23 12:18:06;;;;;;;14.37;13.07;;;26.80;99.90;;;;;;5114739;28;20509;-78
2023/08/23 12:20:37;;;;;;;16.53;14.87;;;26.80;99.90;;;;;;5115166;28;20469;-79
2023/08/23 12:23:06;;;;;;;21.90;19.80;;;26.80;99.90;;;;;;5114739;28;20465;-78
2023/08/23 12:25:33;;;;;;;28.17;25.37;;;26.80;99.90;;;;;;5108135;28;20837;-80
2023/08/23 12:28:01;;;;;;;32.43;29.20;;;26.70;99.90;;;;;;5087513;28;20544;-79
2023/08/23 12:30:28;;;;;;;58.43;52.50;;;26.80;99.90;;;;;;5095416;28;20478;-79
2023/08/23 12:32:55;;;;;;;79.30;70.90;;;26.80;99.90;;;;;;5095330;28;20495;-79
2023/08/23 12:35:22;;;;;;;66.77;60.13;;;26.80;99.90;;;;;;5095539;28;20486;-79
2023/08/23 12:37:49;;;;;;;75.17;67.37;;;26.80;99.90;;;;;;5094802;28;21012;-81
2023/08/23 12:40:23;;;;;;;77.80;69.70;;;26.90;99.90;;;;;;5085533;28;20470;-79
2023/08/23 12:42:51;;;;;;;89.80;80.77;;;26.90;99.90;;;;;;5108787;28;20798;-80
2023/08/23 12:45:28;;;;;;;46.63;41.67;;;26.90;99.90;;;;;;5076757;28;20543;-80
2023/08/23 12:47:55;;;;;;;96.97;86.60;;;26.90;99.90;;;;;;5093868;28;20479;-79
2023/08/23 12:50:22;;;;;;;124.67;111.63;;;26.90;99.90;;;;;;5097010;28;20466;-79
2023/08/23 12:52:49;;;;;;;113.40;101.20;;;26.90;99.90;;;;;;5094592;28;20777;-80